createdAt,value
2023-05-06T00:01:52.493Z,20.06
2023-05-06T00:04:54.843Z,20.06
2023-05-06T00:07:57.003Z,20.06
2023-05-06T00:10:59.070Z,20.04
2023-05-06T00:14:01.195Z,20.03
2023-05-06T00:17:03.378Z,20.03
2023-05-06T00:20:06.207Z,20.04
2023-05-06T00:23:08.261Z,20.03
2023-05-06T00:26:10.749Z,20.03
2023-05-06T00:29:12.775Z,20.01
2023-05-06T00:32:15.267Z,20.01
2023-05-06T00:35:17.354Z,20.00
2023-05-06T00:38:19.881Z,19.99
2023-05-06T00:41:22.031Z,19.98
2023-05-06T00:44:24.238Z,20.00
2023-05-06T00:47:26.944Z,19.97
2023-05-06T00:50:29.819Z,19.96
2023-05-06T00:53:32.897Z,19.97
2023-05-06T00:56:35.010Z,19.96
2023-05-06T00:59:37.066Z,19.96
2023-05-06T01:02:47.020Z,19.95
2023-05-06T01:06:13.898Z,19.94
2023-05-06T01:09:19.486Z,19.92
2023-05-06T01:12:35.744Z,19.90
2023-05-06T01:15:45.318Z,19.92
2023-05-06T01:18:51.630Z,19.92
2023-05-06T01:21:56.236Z,19.89
2023-05-06T01:24:58.250Z,19.90
2023-05-06T01:28:00.536Z,19.88
2023-05-06T01:31:09.176Z,19.89
2023-05-06T01:34:40.428Z,19.88
2023-05-06T01:38:11.441Z,19.88
2023-05-06T01:41:17.041Z,19.89
2023-05-06T01:44:23.133Z,19.88
2023-05-06T01:47:25.862Z,19.87
2023-05-06T01:50:29.074Z,19.85
2023-05-06T01:53:33.178Z,19.86
2023-05-06T01:56:35.338Z,19.86
2023-05-06T01:59:37.423Z,19.85
2023-05-06T02:02:40.003Z,19.84
2023-05-06T02:05:42.145Z,19.83
2023-05-06T02:08:44.372Z,19.84
2023-05-06T02:11:46.514Z,19.82
2023-05-06T02:14:48.552Z,19.84
2023-05-06T02:17:50.746Z,19.82
2023-05-06T02:20:52.916Z,19.82
2023-05-06T02:23:55.050Z,19.83
2023-05-06T02:26:57.205Z,19.82
2023-05-06T02:29:59.586Z,19.82
2023-05-06T02:33:01.922Z,19.81
2023-05-06T02:36:04.235Z,19.81
2023-05-06T02:39:06.327Z,19.79
2023-05-06T02:42:08.602Z,19.77
2023-05-06T02:45:11.381Z,19.79
2023-05-06T02:48:13.649Z,19.76
2023-05-06T02:51:16.105Z,19.76
2023-05-06T02:54:18.129Z,19.75
2023-05-06T02:57:20.230Z,19.75
2023-05-06T03:00:24.923Z,19.74
2023-05-06T03:03:27.008Z,19.73
2023-05-06T03:06:29.010Z,19.74
2023-05-06T03:09:31.068Z,19.74
2023-05-06T03:12:33.278Z,19.72
2023-05-06T03:15:35.718Z,19.72
2023-05-06T03:18:37.776Z,19.72
2023-05-06T03:21:39.922Z,19.71
2023-05-06T03:24:42.176Z,19.70
2023-05-06T03:27:44.337Z,19.69
2023-05-06T03:30:46.740Z,19.69
2023-05-06T03:33:48.780Z,19.67
2023-05-06T03:36:50.819Z,19.68
2023-05-06T03:39:53.042Z,19.68
2023-05-06T03:42:55.197Z,19.66
2023-05-06T03:45:57.541Z,19.65
2023-05-06T03:49:00.701Z,19.66
2023-05-06T03:52:02.820Z,19.65
2023-05-06T03:55:05.368Z,19.65
2023-05-06T03:58:07.698Z,19.65
2023-05-06T04:01:09.816Z,19.65
2023-05-06T04:04:11.932Z,19.63
2023-05-06T04:07:13.978Z,19.63
2023-05-06T04:10:16.225Z,19.63
2023-05-06T04:13:18.487Z,19.63
2023-05-06T04:16:20.838Z,19.58
2023-05-06T04:19:23.485Z,19.59
2023-05-06T04:22:25.820Z,19.60
2023-05-06T04:25:28.953Z,19.61
2023-05-06T04:28:31.020Z,19.65
2023-05-06T04:31:34.406Z,19.67
2023-05-06T04:34:36.847Z,19.61
2023-05-06T04:37:38.964Z,19.60
2023-05-06T04:40:41.028Z,19.59
2023-05-06T04:43:43.157Z,19.58
2023-05-06T04:46:45.418Z,19.60
2023-05-06T04:49:47.448Z,19.61
2023-05-06T04:52:49.533Z,19.65
2023-05-06T04:55:51.701Z,19.66
2023-05-06T04:58:53.789Z,19.63
2023-05-06T05:01:55.893Z,19.63
2023-05-06T05:04:57.948Z,19.63
2023-05-06T05:07:59.987Z,19.63
2023-05-06T05:11:02.165Z,19.66
2023-05-06T05:14:04.368Z,19.69
2023-05-06T05:17:06.467Z,19.71
2023-05-06T05:20:09.070Z,19.72
2023-05-06T05:23:11.301Z,19.73
2023-05-06T05:26:13.412Z,19.74
2023-05-06T05:29:15.504Z,19.76
2023-05-06T05:32:17.580Z,19.79
2023-05-06T05:35:19.846Z,19.76
2023-05-06T05:38:22.256Z,19.80
2023-05-06T05:41:26.440Z,19.77
2023-05-06T05:44:28.487Z,19.81
2023-05-06T05:47:30.638Z,19.82
2023-05-06T05:50:32.657Z,19.86
2023-05-06T05:53:34.697Z,19.88
2023-05-06T05:56:36.723Z,19.87
2023-05-06T05:59:39.180Z,19.88
2023-05-06T06:02:41.304Z,19.92
2023-05-06T06:05:43.390Z,19.96
2023-05-06T06:08:45.428Z,20.02
2023-05-06T06:11:47.593Z,20.05
2023-05-06T06:14:50.023Z,20.12
2023-05-06T06:17:54.880Z,20.14
2023-05-06T06:20:57.005Z,20.18
2023-05-06T06:23:59.081Z,20.20
2023-05-06T06:27:01.515Z,20.24
2023-05-06T06:30:04.805Z,20.22
2023-05-06T06:33:06.938Z,20.18
2023-05-06T06:36:09.337Z,20.22
2023-05-06T06:39:12.850Z,20.25
2023-05-06T06:42:14.892Z,20.27
2023-05-06T06:45:17.183Z,20.31
2023-05-06T06:48:19.772Z,20.33
2023-05-06T06:51:21.934Z,20.40
2023-05-06T06:54:24.150Z,20.42
2023-05-06T06:57:26.262Z,20.44
2023-05-06T07:00:28.303Z,20.43
2023-05-06T07:03:30.302Z,20.47
2023-05-06T07:06:32.278Z,20.51
2023-05-06T07:09:35.711Z,20.60
2023-05-06T07:12:37.946Z,20.64
2023-05-06T07:15:40.028Z,20.71
2023-05-06T07:18:42.029Z,20.69
2023-05-06T07:21:44.126Z,20.68
2023-05-06T07:24:46.156Z,20.70
2023-05-06T07:27:48.354Z,20.73
2023-05-06T07:30:53.323Z,20.78
2023-05-06T07:33:55.401Z,20.77
2023-05-06T07:36:57.460Z,20.80
2023-05-06T07:39:59.485Z,20.76
2023-05-06T07:43:02.464Z,20.76
2023-05-06T07:46:04.752Z,20.77
2023-05-06T07:49:06.997Z,20.80
2023-05-06T07:52:09.019Z,20.83
2023-05-06T07:55:11.486Z,20.81
2023-05-06T07:58:13.759Z,20.78
2023-05-06T08:01:16.287Z,20.77
2023-05-06T08:04:18.312Z,20.79
2023-05-06T08:07:20.396Z,20.76
2023-05-06T08:10:22.975Z,20.74
2023-05-06T08:13:26.158Z,20.88
2023-05-06T08:16:28.207Z,20.96
2023-05-06T08:19:30.789Z,21.00
2023-05-06T08:22:32.974Z,21.03
2023-05-06T08:25:34.983Z,21.09
2023-05-06T08:28:37.035Z,21.14
2023-05-06T08:31:39.060Z,21.15
2023-05-06T08:34:41.164Z,21.15
2023-05-06T08:37:43.520Z,21.16
2023-05-06T08:40:47.052Z,21.14
2023-05-06T08:43:50.384Z,21.19
2023-05-06T08:46:52.630Z,21.30
2023-05-06T08:49:54.778Z,21.36
2023-05-06T08:52:56.924Z,21.39
2023-05-06T08:56:04.040Z,21.45
2023-05-06T08:59:09.113Z,21.44
2023-05-06T09:02:11.651Z,21.43
2023-05-06T09:05:13.954Z,21.42
2023-05-06T09:08:16.499Z,21.43
2023-05-06T09:11:22.941Z,21.46
2023-05-06T09:14:25.055Z,21.42
2023-05-06T09:17:31.585Z,21.27
2023-05-06T09:20:34.955Z,21.25
2023-05-06T09:23:38.208Z,21.19
2023-05-06T09:26:42.328Z,21.20
2023-05-06T09:30:06.879Z,21.22
2023-05-06T09:33:09.301Z,21.20
2023-05-06T09:36:13.450Z,21.25
2023-05-06T09:39:15.504Z,21.30
2023-05-06T09:42:17.513Z,21.29
2023-05-06T09:45:19.767Z,21.30
2023-05-06T09:48:23.500Z,21.33
2023-05-06T09:51:28.065Z,21.33
2023-05-06T09:54:30.530Z,21.39
2023-05-06T09:57:33.315Z,21.48
2023-05-06T10:00:36.174Z,21.62
2023-05-06T10:03:42.059Z,21.68
2023-05-06T10:06:46.530Z,21.72
2023-05-06T10:09:51.162Z,22.12
2023-05-06T10:12:54.334Z,22.34
2023-05-06T10:15:57.241Z,22.27
2023-05-06T10:19:00.862Z,21.94
2023-05-06T10:22:30.954Z,21.77
2023-05-06T10:25:38.719Z,21.70
2023-05-06T10:28:43.064Z,21.68
2023-05-06T10:31:53.606Z,21.64
2023-05-06T10:34:58.861Z,21.64
2023-05-06T10:38:04.870Z,21.66
2023-05-06T10:41:08.964Z,21.64
2023-05-06T10:44:11.866Z,21.62
2023-05-06T10:47:13.914Z,21.62
2023-05-06T10:50:24.162Z,21.61
2023-05-06T10:53:59.050Z,21.62
2023-05-06T10:57:10.942Z,21.65
2023-05-06T11:00:13.537Z,21.74
2023-05-06T11:03:18.685Z,21.81
2023-05-06T11:06:38.942Z,21.88
2023-05-06T11:09:57.624Z,21.88
2023-05-06T11:13:18.856Z,21.84
2023-05-06T11:16:49.823Z,21.96
2023-05-06T11:20:21.744Z,21.91
2023-05-06T11:23:52.301Z,21.97
2023-05-06T11:26:55.510Z,21.93
2023-05-06T11:29:57.598Z,21.93
2023-05-06T11:33:05.555Z,21.93
2023-05-06T11:36:14.227Z,21.93
2023-05-06T11:39:16.465Z,21.95
2023-05-06T11:42:25.819Z,21.95
2023-05-06T11:45:47.120Z,22.01
2023-05-06T11:48:50.403Z,22.18
2023-05-06T11:51:52.885Z,22.26
2023-05-06T11:54:55.211Z,22.28
2023-05-06T11:57:57.246Z,22.29
2023-05-06T12:01:04.660Z,22.31
2023-05-06T12:04:06.858Z,22.29
2023-05-06T12:07:10.971Z,22.22
2023-05-06T12:10:15.687Z,22.22
2023-05-06T12:13:18.774Z,22.26
2023-05-06T12:16:21.040Z,22.24
2023-05-06T12:19:23.839Z,22.37
2023-05-06T12:22:25.906Z,22.38
2023-05-06T12:25:28.050Z,22.32
2023-05-06T12:28:31.471Z,22.35
2023-05-06T12:31:33.752Z,22.40
2023-05-06T12:34:42.107Z,22.44
2023-05-06T12:37:44.133Z,22.40
2023-05-06T12:40:55.944Z,22.24
2023-05-06T12:43:57.994Z,22.50
2023-05-06T12:47:01.518Z,22.39
2023-05-06T12:50:03.909Z,22.32
2023-05-06T12:53:08.299Z,21.97
2023-05-06T12:56:10.337Z,22.01
2023-05-06T12:59:13.820Z,22.40
2023-05-06T13:02:16.285Z,22.52
2023-05-06T13:05:18.626Z,22.57
2023-05-06T13:08:20.927Z,22.40
2023-05-06T13:11:24.434Z,22.41
2023-05-06T13:14:27.316Z,22.72
2023-05-06T13:17:29.608Z,22.61
2023-05-06T13:20:32.532Z,22.85
2023-05-06T13:23:37.977Z,22.88
2023-05-06T13:26:40.180Z,22.87
2023-05-06T13:29:42.288Z,22.93
2023-05-06T13:32:45.414Z,22.91
2023-05-06T13:35:47.687Z,22.40
2023-05-06T13:38:49.774Z,22.48
2023-05-06T13:41:52.173Z,22.25
2023-05-06T13:44:54.177Z,22.23
2023-05-06T13:47:56.307Z,22.31
2023-05-06T13:50:58.761Z,22.23
2023-05-06T13:54:01.482Z,22.31
2023-05-06T13:57:03.537Z,22.72
2023-05-06T14:00:07.421Z,22.62
2023-05-06T14:03:09.619Z,22.69
2023-05-06T14:06:11.746Z,22.78
2023-05-06T14:09:13.762Z,22.60
2023-05-06T14:12:16.190Z,22.56
2023-05-06T14:15:18.244Z,22.75
2023-05-06T14:18:20.440Z,22.28
2023-05-06T14:21:22.502Z,22.80
2023-05-06T14:24:24.661Z,23.08
2023-05-06T14:27:27.325Z,22.58
2023-05-06T14:30:30.799Z,22.99
2023-05-06T14:33:32.861Z,23.36
2023-05-06T14:36:34.857Z,23.45
2023-05-06T14:39:36.833Z,23.29
2023-05-06T14:42:38.882Z,23.05
2023-05-06T14:45:40.928Z,22.65
2023-05-06T14:48:43.296Z,22.43
2023-05-06T14:51:45.779Z,22.57
2023-05-06T14:54:47.949Z,22.97
2023-05-06T14:57:49.964Z,22.92
2023-05-06T15:00:52.055Z,22.69
2023-05-06T15:03:54.246Z,22.73
2023-05-06T15:06:59.198Z,22.46
2023-05-06T15:10:02.386Z,22.75
2023-05-06T15:13:04.487Z,22.62
2023-05-06T15:16:09.087Z,22.65
2023-05-06T15:19:12.685Z,22.92
2023-05-06T15:22:14.737Z,22.95
2023-05-06T15:25:30.293Z,22.98
2023-05-06T15:28:36.708Z,22.91
2023-05-06T15:31:40.626Z,22.91
2023-05-06T15:34:42.733Z,22.96
2023-05-06T15:37:44.733Z,23.01
2023-05-06T15:40:51.107Z,23.00
2023-05-06T15:44:00.367Z,23.06
2023-05-06T15:47:02.361Z,23.06
2023-05-06T15:50:14.108Z,23.08
2023-05-06T15:53:23.143Z,23.01
2023-05-06T15:56:26.877Z,23.02
2023-05-06T15:59:29.365Z,23.03
2023-05-06T16:02:32.665Z,22.95
2023-05-06T16:05:34.778Z,22.91
2023-05-06T16:08:37.927Z,22.82
2023-05-06T16:11:40.168Z,22.78
2023-05-06T16:14:42.237Z,22.78
2023-05-06T16:17:44.329Z,22.76
2023-05-06T16:20:46.476Z,22.72
2023-05-06T16:23:48.848Z,22.71
2023-05-06T16:26:50.934Z,22.62
2023-05-06T16:29:52.931Z,22.65
2023-05-06T16:32:55.105Z,22.67
2023-05-06T16:35:57.202Z,22.58
2023-05-06T16:38:59.265Z,22.57
2023-05-06T16:42:01.902Z,22.48
2023-05-06T16:45:04.312Z,22.46
2023-05-06T16:48:06.977Z,22.42
2023-05-06T16:51:10.352Z,22.41
2023-05-06T16:54:12.364Z,22.36
2023-05-06T16:57:14.421Z,22.29
2023-05-06T17:00:16.868Z,22.31
2023-05-06T17:03:19.010Z,22.26
2023-05-06T17:06:21.532Z,22.25
2023-05-06T17:09:23.678Z,22.35
2023-05-06T17:12:26.751Z,22.38
2023-05-06T17:15:28.866Z,22.38
2023-05-06T17:18:30.903Z,22.35
2023-05-06T17:21:33.083Z,22.32
2023-05-06T17:24:35.329Z,22.29
2023-05-06T17:27:37.485Z,22.26
2023-05-06T17:30:39.503Z,22.25
2023-05-06T17:33:41.735Z,22.26
2023-05-06T17:36:43.809Z,22.24
2023-05-06T17:39:47.128Z,22.23
2023-05-06T17:42:49.184Z,22.29
2023-05-06T17:45:51.191Z,22.31
2023-05-06T17:48:53.636Z,22.29
2023-05-06T17:51:56.087Z,22.29
2023-05-06T17:55:14.914Z,22.26
2023-05-06T17:58:19.174Z,22.24
2023-05-06T18:01:21.224Z,22.24
2023-05-06T18:04:23.492Z,22.22
2023-05-06T18:07:25.616Z,22.22
2023-05-06T18:10:27.815Z,22.20
2023-05-06T18:13:31.307Z,22.20
2023-05-06T18:16:33.383Z,22.16
2023-05-06T18:19:36.101Z,22.17
2023-05-06T18:22:38.989Z,22.16
2023-05-06T18:25:41.055Z,22.17
2023-05-06T18:28:43.158Z,22.11
2023-05-06T18:31:45.759Z,22.05
2023-05-06T18:34:47.787Z,22.05
2023-05-06T18:37:49.816Z,21.99
2023-05-06T18:40:52.145Z,21.99
2023-05-06T18:43:54.271Z,21.97
2023-05-06T18:46:56.384Z,22.02
2023-05-06T18:50:00.573Z,21.95
2023-05-06T18:53:03.231Z,21.88
2023-05-06T18:56:05.972Z,21.83
2023-05-06T18:59:08.935Z,21.79
2023-05-06T19:02:11.018Z,21.77
2023-05-06T19:05:13.417Z,21.75
2023-05-06T19:08:16.143Z,21.75
2023-05-06T19:11:19.146Z,21.70
2023-05-06T19:14:22.920Z,21.67
2023-05-06T19:17:25.652Z,21.66
2023-05-06T19:20:27.784Z,21.65
2023-05-06T19:23:29.826Z,21.62
2023-05-06T19:26:32.001Z,21.58
2023-05-06T19:29:34.027Z,21.57
2023-05-06T19:32:36.205Z,21.57
2023-05-06T19:35:39.415Z,21.55
2023-05-06T19:38:41.624Z,21.51
2023-05-06T19:41:43.662Z,21.53
2023-05-06T19:44:47.962Z,21.48
2023-05-06T19:47:50.051Z,21.46
2023-05-06T19:50:53.775Z,21.49
2023-05-06T19:53:55.876Z,21.44
2023-05-06T19:56:59.749Z,21.42
2023-05-06T20:00:05.948Z,21.38
2023-05-06T20:03:09.572Z,21.38
2023-05-06T20:06:11.689Z,21.38
2023-05-06T20:09:13.740Z,21.35
2023-05-06T20:12:16.286Z,21.37
2023-05-06T20:15:18.396Z,21.38
2023-05-06T20:18:20.600Z,21.36
2023-05-06T20:21:22.628Z,21.43
2023-05-06T20:24:25.489Z,21.37
2023-05-06T20:27:27.575Z,21.34
2023-05-06T20:30:29.617Z,21.31
2023-05-06T20:33:31.769Z,21.32
2023-05-06T20:36:34.968Z,21.33
2023-05-06T20:39:36.948Z,21.31
2023-05-06T20:42:38.988Z,21.31
2023-05-06T20:45:41.196Z,21.28
2023-05-06T20:48:43.255Z,21.29
2023-05-06T20:51:45.314Z,21.27
2023-05-06T20:54:47.427Z,21.27
2023-05-06T20:57:49.919Z,21.27
2023-05-06T21:00:52.314Z,21.23
2023-05-06T21:03:54.394Z,21.23
2023-05-06T21:06:59.415Z,21.21
2023-05-06T21:10:03.646Z,21.21
2023-05-06T21:13:06.459Z,21.21
2023-05-06T21:16:08.599Z,21.20
2023-05-06T21:19:10.707Z,21.18
2023-05-06T21:22:12.767Z,21.17
2023-05-06T21:25:14.824Z,21.17
2023-05-06T21:28:16.880Z,21.16
2023-05-06T21:31:23.207Z,21.18
2023-05-06T21:34:26.489Z,21.15
2023-05-06T21:37:28.579Z,21.11
2023-05-06T21:40:30.815Z,21.09
2023-05-06T21:43:33.492Z,21.09
2023-05-06T21:46:37.532Z,21.08
2023-05-06T21:49:39.775Z,21.07
2023-05-06T21:52:41.876Z,21.06
2023-05-06T21:55:43.905Z,21.03
2023-05-06T21:58:45.899Z,21.03
2023-05-06T22:01:48.120Z,21.04
2023-05-06T22:04:50.353Z,21.00
2023-05-06T22:07:52.365Z,21.02
2023-05-06T22:10:54.552Z,20.99
2023-05-06T22:13:56.564Z,20.99
2023-05-06T22:16:58.737Z,20.98
2023-05-06T22:20:04.284Z,20.95
2023-05-06T22:23:06.771Z,20.94
2023-05-06T22:26:08.834Z,20.94
2023-05-06T22:29:10.924Z,20.92
2023-05-06T22:32:13.131Z,20.91
2023-05-06T22:35:15.911Z,20.91
2023-05-06T22:38:17.921Z,20.90
2023-05-06T22:41:19.986Z,20.88
2023-05-06T22:44:22.013Z,20.88
2023-05-06T22:47:24.058Z,20.87
2023-05-06T22:50:26.192Z,20.87
2023-05-06T22:53:28.269Z,20.88
2023-05-06T22:56:30.330Z,20.86
2023-05-06T22:59:32.348Z,20.84
2023-05-06T23:02:34.573Z,20.85
2023-05-06T23:05:36.637Z,20.83
2023-05-06T23:08:38.685Z,20.81
2023-05-06T23:11:40.848Z,20.78
2023-05-06T23:14:42.848Z,20.78
2023-05-06T23:17:44.997Z,20.77
2023-05-06T23:20:47.070Z,20.75
2023-05-06T23:23:49.188Z,20.74
2023-05-06T23:26:51.961Z,20.75
2023-05-06T23:29:54.011Z,20.72
2023-05-06T23:32:56.054Z,20.73
2023-05-06T23:36:00.605Z,20.73
2023-05-06T23:39:02.741Z,20.71
2023-05-06T23:42:04.777Z,20.71
2023-05-06T23:45:07.414Z,20.71
2023-05-06T23:48:09.643Z,20.69
2023-05-06T23:51:11.682Z,20.68
2023-05-06T23:54:13.691Z,20.66
2023-05-06T23:57:16.024Z,20.66
